KLBE/LBE METAR and TAF weather

Enter ICAO airport designator
Station Type Date Time Source
KLBE METAR 2022/11/26 09:15 UTC NOAA

KLBE 260915Z AUTO 00000KT 8SM CLR M01/M02 A3015 RMK AO2


Station Type Date Time Source
KLBE Decoded METAR 2022/11/26 09:15 UTC NOAA

Latrobe / Westmorland, PA, United States (KLBE) 40-17N 079-24W
Nov 26, 2022 - 04:15 AM EST / 2022.11.26 0915 UTC
Wind: Calm:0
Visibility: 8 mile(s):0
Sky conditions: clear
Temperature: 30 F (-1 C)
Dew Point: 28 F (-2 C)
Relative Humidity: 92%
Pressure (altimeter): 30.15 in. Hg (1020 hPa)
ob: KLBE 260915Z AUTO 00000KT 8SM CLR M01/M02 A3015 RMK AO2
cycle: 9

Station Type Date Time Source
KLBE TAF 2022/11/26 06:22 UTC NOAA

TAF KLBE 260520Z 2606/2706 VRB03KT P6SM SKC
FM261100 25004KT P6SM SKC
FM270000 21003KT P6SM SCT250

Example: see airport list